sensor_id;sensor_type;location;lat;lon;timestamp;temperature;humidity
11855;DHT22;5987;53.140;8.904;2023-04-03T00:01:18;2.30;99.90
11855;DHT22;5987;53.140;8.904;2023-04-03T00:04:22;2.40;99.90
11855;DHT22;5987;53.140;8.904;2023-04-03T00:07:27;2.40;99.90
11855;DHT22;5987;53.140;8.904;2023-04-03T00:10:31;2.30;99.90
11855;DHT22;5987;53.140;8.904;2023-04-03T00:13:35;2.30;99.90
11855;DHT22;5987;53.140;8.904;2023-04-03T00:16:39;2.20;99.90
11855;DHT22;5987;53.140;8.904;2023-04-03T00:19:43;2.00;99.90
11855;DHT22;5987;53.140;8.904;2023-04-03T00:22:48;2.00;99.90
11855;DHT22;5987;53.140;8.904;2023-04-03T00:25:52;1.90;99.90
11855;DHT22;5987;53.140;8.904;2023-04-03T00:28:57;1.90;99.90
11855;DHT22;5987;53.140;8.904;2023-04-03T00:32:01;1.80;99.90
11855;DHT22;5987;53.140;8.904;2023-04-03T00:35:05;1.80;99.90
11855;DHT22;5987;53.140;8.904;2023-04-03T00:38:10;1.70;99.90
11855;DHT22;5987;53.140;8.904;2023-04-03T00:41:14;1.70;99.90
11855;DHT22;5987;53.140;8.904;2023-04-03T00:44:21;1.80;99.90
11855;DHT22;5987;53.140;8.904;2023-04-03T00:47:45;1.80;99.90
11855;DHT22;5987;53.140;8.904;2023-04-03T00:50:49;1.70;99.90
11855;DHT22;5987;53.140;8.904;2023-04-03T00:53:59;1.80;99.90
11855;DHT22;5987;53.140;8.904;2023-04-03T00:57:07;1.80;99.90
11855;DHT22;5987;53.140;8.904;2023-04-03T01:00:14;1.70;99.90
11855;DHT22;5987;53.140;8.904;2023-04-03T01:03:21;1.70;99.90
11855;DHT22;5987;53.140;8.904;2023-04-03T01:06:27;1.70;99.90
11855;DHT22;5987;53.140;8.904;2023-04-03T01:09:36;1.70;99.90
11855;DHT22;5987;53.140;8.904;2023-04-03T01:12:43;1.70;99.90
11855;DHT22;5987;53.140;8.904;2023-04-03T01:15:48;1.60;99.90
11855;DHT22;5987;53.140;8.904;2023-04-03T01:18:51;1.60;99.90
11855;DHT22;5987;53.140;8.904;2023-04-03T01:22:13;1.60;99.90
11855;DHT22;5987;53.140;8.904;2023-04-03T01:25:24;1.50;99.90
11855;DHT22;5987;53.140;8.904;2023-04-03T01:28:30;1.50;99.90
11855;DHT22;5987;53.140;8.904;2023-04-03T01:31:47;1.50;99.90
11855;DHT22;5987;53.140;8.904;2023-04-03T01:34:56;1.40;99.90
11855;DHT22;5987;53.140;8.904;2023-04-03T01:37:59;1.30;99.90
11855;DHT22;5987;53.140;8.904;2023-04-03T01:41:03;1.30;99.90
11855;DHT22;5987;53.140;8.904;2023-04-03T01:44:06;1.40;99.90
11855;DHT22;5987;53.140;8.904;2023-04-03T01:47:11;1.40;99.90
11855;DHT22;5987;53.140;8.904;2023-04-03T01:50:15;1.40;99.90
11855;DHT22;5987;53.140;8.904;2023-04-03T01:53:19;1.20;99.90
11855;DHT22;5987;53.140;8.904;2023-04-03T01:56:23;1.20;99.90
11855;DHT22;5987;53.140;8.904;2023-04-03T01:59:27;1.20;99.90
11855;DHT22;5987;53.140;8.904;2023-04-03T02:02:32;1.20;99.90
11855;DHT22;5987;53.140;8.904;2023-04-03T02:05:35;1.20;99.90
11855;DHT22;5987;53.140;8.904;2023-04-03T02:08:39;1.20;99.90
11855;DHT22;5987;53.140;8.904;2023-04-03T02:11:43;1.20;99.90
11855;DHT22;5987;53.140;8.904;2023-04-03T02:14:47;1.20;99.90
11855;DHT22;5987;53.140;8.904;2023-04-03T02:17:52;1.10;99.90
11855;DHT22;5987;53.140;8.904;2023-04-03T02:20:55;1.10;99.90
11855;DHT22;5987;53.140;8.904;2023-04-03T02:24:00;1.10;99.90
11855;DHT22;5987;53.140;8.904;2023-04-03T02:27:03;1.10;99.90
11855;DHT22;5987;53.140;8.904;2023-04-03T02:30:07;1.20;99.90
11855;DHT22;5987;53.140;8.904;2023-04-03T02:33:14;1.10;99.90
11855;DHT22;5987;53.140;8.904;2023-04-03T02:36:17;1.10;99.90
11855;DHT22;5987;53.140;8.904;2023-04-03T02:39:21;1.20;99.90
11855;DHT22;5987;53.140;8.904;2023-04-03T02:42:24;1.10;99.90
11855;DHT22;5987;53.140;8.904;2023-04-03T02:45:28;1.10;99.90
11855;DHT22;5987;53.140;8.904;2023-04-03T02:48:33;1.10;99.90
11855;DHT22;5987;53.140;8.904;2023-04-03T02:51:37;1.00;99.90
11855;DHT22;5987;53.140;8.904;2023-04-03T02:54:40;1.00;99.90
11855;DHT22;5987;53.140;8.904;2023-04-03T02:57:44;0.90;99.90
11855;DHT22;5987;53.140;8.904;2023-04-03T03:00:48;1.00;99.90
11855;DHT22;5987;53.140;8.904;2023-04-03T03:03:52;1.00;99.90
11855;DHT22;5987;53.140;8.904;2023-04-03T03:06:56;1.00;99.90
11855;DHT22;5987;53.140;8.904;2023-04-03T03:10:01;1.00;99.90
11855;DHT22;5987;53.140;8.904;2023-04-03T03:13:05;0.90;99.90
11855;DHT22;5987;53.140;8.904;2023-04-03T03:16:08;1.00;99.90
11855;DHT22;5987;53.140;8.904;2023-04-03T03:19:13;0.90;99.90
11855;DHT22;5987;53.140;8.904;2023-04-03T03:22:17;1.00;99.90
11855;DHT22;5987;53.140;8.904;2023-04-03T03:25:21;1.00;99.90
11855;DHT22;5987;53.140;8.904;2023-04-03T03:28:26;0.90;99.90
11855;DHT22;5987;53.140;8.904;2023-04-03T03:31:30;1.00;99.90
11855;DHT22;5987;53.140;8.904;2023-04-03T03:34:35;0.90;99.90
11855;DHT22;5987;53.140;8.904;2023-04-03T03:37:39;0.80;99.90
11855;DHT22;5987;53.140;8.904;2023-04-03T03:40:42;0.80;99.90
11855;DHT22;5987;53.140;8.904;2023-04-03T03:43:46;0.90;99.90
11855;DHT22;5987;53.140;8.904;2023-04-03T03:46:49;0.90;99.90
11855;DHT22;5987;53.140;8.904;2023-04-03T03:49:54;0.70;99.90
11855;DHT22;5987;53.140;8.904;2023-04-03T03:52:58;1.10;99.90
11855;DHT22;5987;53.140;8.904;2023-04-03T03:56:02;0.80;99.90
11855;DHT22;5987;53.140;8.904;2023-04-03T03:59:06;0.70;99.90
11855;DHT22;5987;53.140;8.904;2023-04-03T04:02:10;0.80;99.90
11855;DHT22;5987;53.140;8.904;2023-04-03T04:05:16;0.80;99.90
11855;DHT22;5987;53.140;8.904;2023-04-03T04:08:19;0.70;99.90
11855;DHT22;5987;53.140;8.904;2023-04-03T04:11:23;0.70;99.90
11855;DHT22;5987;53.140;8.904;2023-04-03T04:14:27;0.70;99.90
11855;DHT22;5987;53.140;8.904;2023-04-03T04:17:30;0.70;99.90
11855;DHT22;5987;53.140;8.904;2023-04-03T04:20:35;0.70;99.90
11855;DHT22;5987;53.140;8.904;2023-04-03T04:23:39;0.70;99.90
11855;DHT22;5987;53.140;8.904;2023-04-03T04:26:43;0.70;99.90
11855;DHT22;5987;53.140;8.904;2023-04-03T04:29:46;0.80;99.90
11855;DHT22;5987;53.140;8.904;2023-04-03T04:32:50;0.80;99.90
11855;DHT22;5987;53.140;8.904;2023-04-03T04:35:55;0.80;99.90
11855;DHT22;5987;53.140;8.904;2023-04-03T04:38:59;0.90;99.90
11855;DHT22;5987;53.140;8.904;2023-04-03T04:42:02;1.00;99.90
11855;DHT22;5987;53.140;8.904;2023-04-03T04:45:08;0.70;99.90
11855;DHT22;5987;53.140;8.904;2023-04-03T04:48:12;0.70;99.90
11855;DHT22;5987;53.140;8.904;2023-04-03T04:51:17;0.80;99.90
11855;DHT22;5987;53.140;8.904;2023-04-03T04:54:21;1.10;99.90
11855;DHT22;5987;53.140;8.904;2023-04-03T04:57:25;0.80;99.90
11855;DHT22;5987;53.140;8.904;2023-04-03T05:00:29;0.80;99.90
11855;DHT22;5987;53.140;8.904;2023-04-03T05:03:33;0.80;99.90
11855;DHT22;5987;53.140;8.904;2023-04-03T05:06:39;0.80;99.90
11855;DHT22;5987;53.140;8.904;2023-04-03T05:09:43;0.80;99.90
11855;DHT22;5987;53.140;8.904;2023-04-03T05:12:46;1.10;99.90
11855;DHT22;5987;53.140;8.904;2023-04-03T05:15:50;0.70;99.90
11855;DHT22;5987;53.140;8.904;2023-04-03T05:18:53;0.80;99.90
11855;DHT22;5987;53.140;8.904;2023-04-03T05:21:58;1.30;99.90
11855;DHT22;5987;53.140;8.904;2023-04-03T05:25:02;0.80;99.90
11855;DHT22;5987;53.140;8.904;2023-04-03T05:28:07;0.80;99.90
11855;DHT22;5987;53.140;8.904;2023-04-03T05:31:10;0.90;99.90
11855;DHT22;5987;53.140;8.904;2023-04-03T05:34:14;0.90;99.90
11855;DHT22;5987;53.140;8.904;2023-04-03T05:37:19;0.90;99.90
11855;DHT22;5987;53.140;8.904;2023-04-03T05:40:23;0.90;99.90
11855;DHT22;5987;53.140;8.904;2023-04-03T05:43:27;1.00;99.90
11855;DHT22;5987;53.140;8.904;2023-04-03T05:46:31;1.00;99.90
11855;DHT22;5987;53.140;8.904;2023-04-03T05:49:35;1.10;99.90
11855;DHT22;5987;53.140;8.904;2023-04-03T05:52:45;1.10;99.90
11855;DHT22;5987;53.140;8.904;2023-04-03T05:55:52;1.30;99.90
11855;DHT22;5987;53.140;8.904;2023-04-03T05:58:56;1.30;99.90
11855;DHT22;5987;53.140;8.904;2023-04-03T06:02:00;1.40;99.90
11855;DHT22;5987;53.140;8.904;2023-04-03T06:05:04;1.40;99.90
11855;DHT22;5987;53.140;8.904;2023-04-03T06:08:10;1.60;99.90
11855;DHT22;5987;53.140;8.904;2023-04-03T06:11:14;1.70;99.90
11855;DHT22;5987;53.140;8.904;2023-04-03T06:14:18;1.80;99.90
11855;DHT22;5987;53.140;8.904;2023-04-03T06:17:22;2.00;99.90
11855;DHT22;5987;53.140;8.904;2023-04-03T06:20:26;2.20;99.90
11855;DHT22;5987;53.140;8.904;2023-04-03T06:23:31;2.30;99.90
11855;DHT22;5987;53.140;8.904;2023-04-03T06:26:35;2.50;99.90
11855;DHT22;5987;53.140;8.904;2023-04-03T06:29:39;2.60;99.90
11855;DHT22;5987;53.140;8.904;2023-04-03T06:32:43;2.70;99.90
11855;DHT22;5987;53.140;8.904;2023-04-03T06:35:47;2.80;99.90
11855;DHT22;5987;53.140;8.904;2023-04-03T06:38:52;2.90;99.90
11855;DHT22;5987;53.140;8.904;2023-04-03T06:41:55;2.90;99.90
11855;DHT22;5987;53.140;8.904;2023-04-03T06:44:59;3.00;99.90
11855;DHT22;5987;53.140;8.904;2023-04-03T06:48:03;3.10;99.90
11855;DHT22;5987;53.140;8.904;2023-04-03T06:51:18;3.20;99.90
11855;DHT22;5987;53.140;8.904;2023-04-03T06:54:24;3.40;99.90
11855;DHT22;5987;53.140;8.904;2023-04-03T06:57:28;3.50;99.90
11855;DHT22;5987;53.140;8.904;2023-04-03T07:00:32;4.00;99.90
11855;DHT22;5987;53.140;8.904;2023-04-03T07:03:37;4.10;99.90
11855;DHT22;5987;53.140;8.904;2023-04-03T07:06:41;4.40;99.90
11855;DHT22;5987;53.140;8.904;2023-04-03T07:09:46;4.50;99.90
11855;DHT22;5987;53.140;8.904;2023-04-03T07:12:49;4.70;99.90
11855;DHT22;5987;53.140;8.904;2023-04-03T07:15:54;4.90;99.90
11855;DHT22;5987;53.140;8.904;2023-04-03T07:18:58;4.90;99.90
11855;DHT22;5987;53.140;8.904;2023-04-03T07:22:02;5.10;99.90
11855;DHT22;5987;53.140;8.904;2023-04-03T07:25:07;5.40;99.90
11855;DHT22;5987;53.140;8.904;2023-04-03T07:28:13;5.60;99.90
11855;DHT22;5987;53.140;8.904;2023-04-03T07:31:17;5.80;99.90
11855;DHT22;5987;53.140;8.904;2023-04-03T07:34:21;5.90;99.90
11855;DHT22;5987;53.140;8.904;2023-04-03T07:37:25;5.90;99.90
11855;DHT22;5987;53.140;8.904;2023-04-03T07:40:30;6.30;99.90
11855;DHT22;5987;53.140;8.904;2023-04-03T07:43:33;6.20;99.90
11855;DHT22;5987;53.140;8.904;2023-04-03T07:46:37;6.20;99.90
11855;DHT22;5987;53.140;8.904;2023-04-03T07:49:41;6.50;99.90
11855;DHT22;5987;53.140;8.904;2023-04-03T07:52:48;6.80;99.90
11855;DHT22;5987;53.140;8.904;2023-04-03T07:55:57;7.00;99.90
11855;DHT22;5987;53.140;8.904;2023-04-03T07:59:02;7.00;99.90
11855;DHT22;5987;53.140;8.904;2023-04-03T08:02:05;7.20;99.90
11855;DHT22;5987;53.140;8.904;2023-04-03T08:05:11;7.30;99.90
11855;DHT22;5987;53.140;8.904;2023-04-03T08:08:16;7.30;99.90
11855;DHT22;5987;53.140;8.904;2023-04-03T08:11:23;7.50;99.90
11855;DHT22;5987;53.140;8.904;2023-04-03T08:14:31;7.20;99.90
11855;DHT22;5987;53.140;8.904;2023-04-03T08:17:36;7.20;99.90
11855;DHT22;5987;53.140;8.904;2023-04-03T08:20:40;7.40;99.90
11855;DHT22;5987;53.140;8.904;2023-04-03T08:23:43;7.40;99.90
11855;DHT22;5987;53.140;8.904;2023-04-03T08:26:48;7.60;99.90
11855;DHT22;5987;53.140;8.904;2023-04-03T08:29:52;7.80;99.90
11855;DHT22;5987;53.140;8.904;2023-04-03T08:32:56;7.70;96.10
11855;DHT22;5987;53.140;8.904;2023-04-03T08:35:59;7.60;94.30
11855;DHT22;5987;53.140;8.904;2023-04-03T08:39:03;7.60;92.80
11855;DHT22;5987;53.140;8.904;2023-04-03T08:42:16;7.60;92.60
11855;DHT22;5987;53.140;8.904;2023-04-03T08:45:37;7.70;93.60
11855;DHT22;5987;53.140;8.904;2023-04-03T08:48:48;7.80;92.70
11855;DHT22;5987;53.140;8.904;2023-04-03T08:51:54;8.10;90.90
11855;DHT22;5987;53.140;8.904;2023-04-03T08:55:00;8.10;89.80
11855;DHT22;5987;53.140;8.904;2023-04-03T08:58:09;8.10;83.80
11855;DHT22;5987;53.140;8.904;2023-04-03T09:01:19;8.20;81.30
11855;DHT22;5987;53.140;8.904;2023-04-03T09:04:27;8.20;80.50
11855;DHT22;5987;53.140;8.904;2023-04-03T09:07:39;8.30;83.30
11855;DHT22;5987;53.140;8.904;2023-04-03T09:10:52;8.60;84.10
11855;DHT22;5987;53.140;8.904;2023-04-03T09:14:15;8.70;80.70
11855;DHT22;5987;53.140;8.904;2023-04-03T09:17:38;8.80;76.60
11855;DHT22;5987;53.140;8.904;2023-04-03T09:20:55;8.50;75.50
11855;DHT22;5987;53.140;8.904;2023-04-03T09:24:06;8.50;77.20
11855;DHT22;5987;53.140;8.904;2023-04-03T09:27:12;8.50;77.10
11855;DHT22;5987;53.140;8.904;2023-04-03T09:30:18;8.50;77.60
11855;DHT22;5987;53.140;8.904;2023-04-03T09:33:24;8.70;76.60
11855;DHT22;5987;53.140;8.904;2023-04-03T09:36:38;8.60;77.70
11855;DHT22;5987;53.140;8.904;2023-04-03T09:39:51;8.50;77.50
11855;DHT22;5987;53.140;8.904;2023-04-03T09:42:59;8.30;74.70
11855;DHT22;5987;53.140;8.904;2023-04-03T09:46:28;8.30;77.20
11855;DHT22;5987;53.140;8.904;2023-04-03T09:49:33;8.20;77.50
11855;DHT22;5987;53.140;8.904;2023-04-03T09:52:38;8.20;76.90
11855;DHT22;5987;53.140;8.904;2023-04-03T09:55:43;8.20;77.70
11855;DHT22;5987;53.140;8.904;2023-04-03T09:58:50;8.00;76.50
11855;DHT22;5987;53.140;8.904;2023-04-03T10:02:02;8.10;78.10
11855;DHT22;5987;53.140;8.904;2023-04-03T10:05:37;8.20;77.90
11855;DHT22;5987;53.140;8.904;2023-04-03T10:08:43;8.40;76.50
11855;DHT22;5987;53.140;8.904;2023-04-03T10:12:08;8.40;75.80
11855;DHT22;5987;53.140;8.904;2023-04-03T10:15:21;8.40;75.90
11855;DHT22;5987;53.140;8.904;2023-04-03T10:18:32;8.30;74.00
11855;DHT22;5987;53.140;8.904;2023-04-03T10:21:48;8.30;75.00
11855;DHT22;5987;53.140;8.904;2023-04-03T10:25:03;8.40;75.30
11855;DHT22;5987;53.140;8.904;2023-04-03T10:28:16;8.60;74.50
11855;DHT22;5987;53.140;8.904;2023-04-03T10:31:33;8.70;75.90
11855;DHT22;5987;53.140;8.904;2023-04-03T10:34:49;8.90;74.80
11855;DHT22;5987;53.140;8.904;2023-04-03T10:38:15;8.80;73.00
11855;DHT22;5987;53.140;8.904;2023-04-03T10:41:31;8.70;72.90
11855;DHT22;5987;53.140;8.904;2023-04-03T10:44:52;8.60;74.20
11855;DHT22;5987;53.140;8.904;2023-04-03T10:48:35;8.60;76.10
11855;DHT22;5987;53.140;8.904;2023-04-03T10:51:54;8.80;73.70
11855;DHT22;5987;53.140;8.904;2023-04-03T10:55:13;8.70;73.30
11855;DHT22;5987;53.140;8.904;2023-04-03T10:58:31;8.70;75.00
11855;DHT22;5987;53.140;8.904;2023-04-03T11:01:40;8.90;74.50
11855;DHT22;5987;53.140;8.904;2023-04-03T11:04:50;8.80;71.80
11855;DHT22;5987;53.140;8.904;2023-04-03T11:08:03;8.80;75.00
11855;DHT22;5987;53.140;8.904;2023-04-03T11:11:16;9.00;73.30
11855;DHT22;5987;53.140;8.904;2023-04-03T11:14:26;8.90;73.50
11855;DHT22;5987;53.140;8.904;2023-04-03T11:17:35;8.90;74.80
11855;DHT22;5987;53.140;8.904;2023-04-03T11:20:53;9.00;73.30
11855;DHT22;5987;53.140;8.904;2023-04-03T11:24:13;9.10;73.30
11855;DHT22;5987;53.140;8.904;2023-04-03T11:27:23;9.20;72.50
11855;DHT22;5987;53.140;8.904;2023-04-03T11:30:33;9.20;71.60
11855;DHT22;5987;53.140;8.904;2023-04-03T11:33:55;9.30;72.60
11855;DHT22;5987;53.140;8.904;2023-04-03T11:37:13;9.50;71.80
11855;DHT22;5987;53.140;8.904;2023-04-03T11:40:35;9.50;73.20
11855;DHT22;5987;53.140;8.904;2023-04-03T11:43:43;9.70;71.00
11855;DHT22;5987;53.140;8.904;2023-04-03T11:47:01;9.80;70.30
11855;DHT22;5987;53.140;8.904;2023-04-03T11:50:39;9.70;71.30
11855;DHT22;5987;53.140;8.904;2023-04-03T11:53:44;9.80;72.30
11855;DHT22;5987;53.140;8.904;2023-04-03T11:56:54;10.00;71.00
11855;DHT22;5987;53.140;8.904;2023-04-03T11:59:58;10.00;70.70
11855;DHT22;5987;53.140;8.904;2023-04-03T12:03:02;9.80;71.60
11855;DHT22;5987;53.140;8.904;2023-04-03T12:06:54;9.70;71.90
11855;DHT22;5987;53.140;8.904;2023-04-03T12:10:18;9.80;72.80
11855;DHT22;5987;53.140;8.904;2023-04-03T12:13:33;10.00;72.70
11855;DHT22;5987;53.140;8.904;2023-04-03T12:16:43;10.00;73.20
11855;DHT22;5987;53.140;8.904;2023-04-03T12:19:49;9.90;72.70
11855;DHT22;5987;53.140;8.904;2023-04-03T12:23:08;9.80;72.50
11855;DHT22;5987;53.140;8.904;2023-04-03T12:26:32;9.80;73.40
11855;DHT22;5987;53.140;8.904;2023-04-03T12:29:58;9.80;72.30
11855;DHT22;5987;53.140;8.904;2023-04-03T12:33:20;9.70;72.20
11855;DHT22;5987;53.140;8.904;2023-04-03T12:36:42;9.60;72.20
11855;DHT22;5987;53.140;8.904;2023-04-03T12:39:59;9.20;73.60
11855;DHT22;5987;53.140;8.904;2023-04-03T12:43:21;9.00;74.80
11855;DHT22;5987;53.140;8.904;2023-04-03T12:46:39;8.90;75.30
11855;DHT22;5987;53.140;8.904;2023-04-03T12:49:49;8.90;73.00
11855;DHT22;5987;53.140;8.904;2023-04-03T12:52:59;9.20;73.80
11855;DHT22;5987;53.140;8.904;2023-04-03T12:56:22;9.40;72.40
11855;DHT22;5987;53.140;8.904;2023-04-03T12:59:28;9.60;72.90
11855;DHT22;5987;53.140;8.904;2023-04-03T13:02:33;9.80;70.60
11855;DHT22;5987;53.140;8.904;2023-04-03T13:05:39;9.90;70.20
11855;DHT22;5987;53.140;8.904;2023-04-03T13:08:51;9.80;70.20
11855;DHT22;5987;53.140;8.904;2023-04-03T13:11:59;9.80;71.20
11855;DHT22;5987;53.140;8.904;2023-04-03T13:15:14;9.90;71.20
11855;DHT22;5987;53.140;8.904;2023-04-03T13:18:25;10.00;71.00
11855;DHT22;5987;53.140;8.904;2023-04-03T13:21:35;10.30;72.00
11855;DHT22;5987;53.140;8.904;2023-04-03T13:24:39;10.50;74.70
11855;DHT22;5987;53.140;8.904;2023-04-03T13:27:44;10.50;70.90
11855;DHT22;5987;53.140;8.904;2023-04-03T13:30:58;10.10;70.90
11855;DHT22;5987;53.140;8.904;2023-04-03T13:34:07;9.80;72.60
11855;DHT22;5987;53.140;8.904;2023-04-03T13:37:22;9.90;72.20
11855;DHT22;5987;53.140;8.904;2023-04-03T13:40:27;9.90;71.80
11855;DHT22;5987;53.140;8.904;2023-04-03T13:43:41;10.10;70.80
11855;DHT22;5987;53.140;8.904;2023-04-03T13:46:45;10.20;69.60
11855;DHT22;5987;53.140;8.904;2023-04-03T13:50:00;10.40;71.30
11855;DHT22;5987;53.140;8.904;2023-04-03T13:53:12;10.30;70.80
11855;DHT22;5987;53.140;8.904;2023-04-03T13:56:21;10.20;70.70
11855;DHT22;5987;53.140;8.904;2023-04-03T13:59:31;10.40;71.70
11855;DHT22;5987;53.140;8.904;2023-04-03T14:02:38;10.50;69.30
11855;DHT22;5987;53.140;8.904;2023-04-03T14:05:42;10.50;70.00
11855;DHT22;5987;53.140;8.904;2023-04-03T14:08:47;10.30;71.00
11855;DHT22;5987;53.140;8.904;2023-04-03T14:11:53;10.00;72.20
11855;DHT22;5987;53.140;8.904;2023-04-03T14:15:01;9.70;72.40
11855;DHT22;5987;53.140;8.904;2023-04-03T14:18:06;9.40;73.30
11855;DHT22;5987;53.140;8.904;2023-04-03T14:21:11;9.50;73.70
11855;DHT22;5987;53.140;8.904;2023-04-03T14:24:17;9.60;74.00
11855;DHT22;5987;53.140;8.904;2023-04-03T14:27:24;9.90;72.20
11855;DHT22;5987;53.140;8.904;2023-04-03T14:30:33;10.10;72.40
11855;DHT22;5987;53.140;8.904;2023-04-03T14:33:40;10.10;71.10
11855;DHT22;5987;53.140;8.904;2023-04-03T14:36:44;10.10;70.20
11855;DHT22;5987;53.140;8.904;2023-04-03T14:39:49;10.30;69.70
11855;DHT22;5987;53.140;8.904;2023-04-03T14:42:54;10.30;69.70
11855;DHT22;5987;53.140;8.904;2023-04-03T14:46:00;10.10;70.30
11855;DHT22;5987;53.140;8.904;2023-04-03T14:49:11;10.00;70.90
11855;DHT22;5987;53.140;8.904;2023-04-03T14:52:21;9.80;71.60
11855;DHT22;5987;53.140;8.904;2023-04-03T14:55:27;10.10;72.70
11855;DHT22;5987;53.140;8.904;2023-04-03T14:58:31;10.40;71.10
11855;DHT22;5987;53.140;8.904;2023-04-03T15:01:36;10.40;68.70
11855;DHT22;5987;53.140;8.904;2023-04-03T15:04:40;10.20;69.90
11855;DHT22;5987;53.140;8.904;2023-04-03T15:07:47;10.40;69.90
11855;DHT22;5987;53.140;8.904;2023-04-03T15:10:55;10.60;71.60
11855;DHT22;5987;53.140;8.904;2023-04-03T15:14:01;10.50;70.80
11855;DHT22;5987;53.140;8.904;2023-04-03T15:17:08;10.20;72.00
11855;DHT22;5987;53.140;8.904;2023-04-03T15:20:20;10.10;73.10
11855;DHT22;5987;53.140;8.904;2023-04-03T15:23:25;10.10;72.80
11855;DHT22;5987;53.140;8.904;2023-04-03T15:26:30;10.30;71.60
11855;DHT22;5987;53.140;8.904;2023-04-03T15:29:35;10.30;70.00
11855;DHT22;5987;53.140;8.904;2023-04-03T15:32:41;10.30;69.30
11855;DHT22;5987;53.140;8.904;2023-04-03T15:35:45;10.20;68.20
11855;DHT22;5987;53.140;8.904;2023-04-03T15:38:49;10.10;68.90
11855;DHT22;5987;53.140;8.904;2023-04-03T15:41:52;10.10;68.90
11855;DHT22;5987;53.140;8.904;2023-04-03T15:44:57;10.30;69.40
11855;DHT22;5987;53.140;8.904;2023-04-03T15:48:02;10.30;69.70
11855;DHT22;5987;53.140;8.904;2023-04-03T15:51:06;10.20;69.50
11855;DHT22;5987;53.140;8.904;2023-04-03T15:54:10;10.10;69.80
11855;DHT22;5987;53.140;8.904;2023-04-03T15:57:14;10.10;70.80
11855;DHT22;5987;53.140;8.904;2023-04-03T16:00:18;9.90;70.00
11855;DHT22;5987;53.140;8.904;2023-04-03T16:03:23;9.70;70.80
11855;DHT22;5987;53.140;8.904;2023-04-03T16:06:27;9.70;71.80
11855;DHT22;5987;53.140;8.904;2023-04-03T16:09:33;9.80;72.20
11855;DHT22;5987;53.140;8.904;2023-04-03T16:12:37;9.80;70.80
11855;DHT22;5987;53.140;8.904;2023-04-03T16:15:41;9.80;71.60
11855;DHT22;5987;53.140;8.904;2023-04-03T16:18:47;9.80;71.00
11855;DHT22;5987;53.140;8.904;2023-04-03T16:21:51;9.90;70.80
11855;DHT22;5987;53.140;8.904;2023-04-03T16:24:58;10.00;70.20
11855;DHT22;5987;53.140;8.904;2023-04-03T16:28:03;10.10;70.50
11855;DHT22;5987;53.140;8.904;2023-04-03T16:31:07;9.90;71.70
11855;DHT22;5987;53.140;8.904;2023-04-03T16:34:13;9.80;72.30
11855;DHT22;5987;53.140;8.904;2023-04-03T16:37:19;9.80;72.30
11855;DHT22;5987;53.140;8.904;2023-04-03T16:40:22;9.50;71.50
11855;DHT22;5987;53.140;8.904;2023-04-03T16:43:26;9.40;72.60
11855;DHT22;5987;53.140;8.904;2023-04-03T16:46:30;9.30;72.90
11855;DHT22;5987;53.140;8.904;2023-04-03T16:49:35;9.30;72.80
11855;DHT22;5987;53.140;8.904;2023-04-03T16:52:39;9.10;74.10
11855;DHT22;5987;53.140;8.904;2023-04-03T16:55:43;9.00;75.30
11855;DHT22;5987;53.140;8.904;2023-04-03T16:58:47;9.10;75.40
11855;DHT22;5987;53.140;8.904;2023-04-03T17:01:51;9.10;74.90
11855;DHT22;5987;53.140;8.904;2023-04-03T17:04:57;9.00;75.00
11855;DHT22;5987;53.140;8.904;2023-04-03T17:08:01;8.90;74.70
11855;DHT22;5987;53.140;8.904;2023-04-03T17:11:05;8.70;74.70
11855;DHT22;5987;53.140;8.904;2023-04-03T17:14:09;8.70;74.50
11855;DHT22;5987;53.140;8.904;2023-04-03T17:17:13;8.70;74.60
11855;DHT22;5987;53.140;8.904;2023-04-03T17:20:19;8.60;74.90
11855;DHT22;5987;53.140;8.904;2023-04-03T17:23:23;8.50;74.70
11855;DHT22;5987;53.140;8.904;2023-04-03T17:26:28;8.40;75.00
11855;DHT22;5987;53.140;8.904;2023-04-03T17:29:32;8.30;75.50
11855;DHT22;5987;53.140;8.904;2023-04-03T17:32:36;8.30;75.60
11855;DHT22;5987;53.140;8.904;2023-04-03T17:35:42;8.20;76.00
11855;DHT22;5987;53.140;8.904;2023-04-03T17:38:45;8.20;76.40
11855;DHT22;5987;53.140;8.904;2023-04-03T17:41:49;8.00;77.20
11855;DHT22;5987;53.140;8.904;2023-04-03T17:44:55;8.00;77.80
11855;DHT22;5987;53.140;8.904;2023-04-03T17:47:59;7.90;78.20
11855;DHT22;5987;53.140;8.904;2023-04-03T17:51:05;7.80;79.00
11855;DHT22;5987;53.140;8.904;2023-04-03T17:54:09;7.80;79.20
11855;DHT22;5987;53.140;8.904;2023-04-03T17:57:12;7.70;79.50
11855;DHT22;5987;53.140;8.904;2023-04-03T18:00:17;7.60;80.00
11855;DHT22;5987;53.140;8.904;2023-04-03T18:03:21;7.40;80.70
11855;DHT22;5987;53.140;8.904;2023-04-03T18:06:29;7.30;80.90
11855;DHT22;5987;53.140;8.904;2023-04-03T18:09:35;7.30;81.40
11855;DHT22;5987;53.140;8.904;2023-04-03T18:12:42;7.20;81.70
11855;DHT22;5987;53.140;8.904;2023-04-03T18:15:46;7.10;82.20
11855;DHT22;5987;53.140;8.904;2023-04-03T18:18:49;7.00;82.40
11855;DHT22;5987;53.140;8.904;2023-04-03T18:22:16;6.90;82.80
11855;DHT22;5987;53.140;8.904;2023-04-03T18:25:22;6.80;83.30
11855;DHT22;5987;53.140;8.904;2023-04-03T18:28:26;6.70;83.70
11855;DHT22;5987;53.140;8.904;2023-04-03T18:31:34;6.60;84.10
11855;DHT22;5987;53.140;8.904;2023-04-03T18:34:39;6.60;84.50
11855;DHT22;5987;53.140;8.904;2023-04-03T18:37:44;6.50;84.60
11855;DHT22;5987;53.140;8.904;2023-04-03T18:40:48;6.40;84.80
11855;DHT22;5987;53.140;8.904;2023-04-03T18:43:52;6.30;85.20
11855;DHT22;5987;53.140;8.904;2023-04-03T18:46:57;6.20;85.80
11855;DHT22;5987;53.140;8.904;2023-04-03T18:50:03;6.20;86.00
11855;DHT22;5987;53.140;8.904;2023-04-03T18:53:09;6.20;86.20
11855;DHT22;5987;53.140;8.904;2023-04-03T18:56:12;6.10;86.10
11855;DHT22;5987;53.140;8.904;2023-04-03T18:59:17;6.10;86.10
11855;DHT22;5987;53.140;8.904;2023-04-03T19:02:21;6.10;86.40
11855;DHT22;5987;53.140;8.904;2023-04-03T19:05:27;6.10;86.10
11855;DHT22;5987;53.140;8.904;2023-04-03T19:08:33;6.20;85.70
11855;DHT22;5987;53.140;8.904;2023-04-03T19:11:37;6.10;85.80
11855;DHT22;5987;53.140;8.904;2023-04-03T19:14:40;6.10;86.00
11855;DHT22;5987;53.140;8.904;2023-04-03T19:17:44;6.00;86.30
11855;DHT22;5987;53.140;8.904;2023-04-03T19:20:48;6.00;86.70
11855;DHT22;5987;53.140;8.904;2023-04-03T19:23:53;5.90;87.10
11855;DHT22;5987;53.140;8.904;2023-04-03T19:27:00;5.80;87.80
11855;DHT22;5987;53.140;8.904;2023-04-03T19:30:04;5.80;88.30
11855;DHT22;5987;53.140;8.904;2023-04-03T19:33:09;5.70;89.00
11855;DHT22;5987;53.140;8.904;2023-04-03T19:36:14;5.60;89.80
11855;DHT22;5987;53.140;8.904;2023-04-03T19:39:20;5.50;90.00
11855;DHT22;5987;53.140;8.904;2023-04-03T19:42:26;5.50;90.30
11855;DHT22;5987;53.140;8.904;2023-04-03T19:45:31;5.50;90.40
11855;DHT22;5987;53.140;8.904;2023-04-03T19:48:35;5.40;90.60
11855;DHT22;5987;53.140;8.904;2023-04-03T19:51:38;5.30;90.70
11855;DHT22;5987;53.140;8.904;2023-04-03T19:54:44;5.20;91.00
11855;DHT22;5987;53.140;8.904;2023-04-03T19:57:47;5.20;91.10
11855;DHT22;5987;53.140;8.904;2023-04-03T20:00:51;5.20;91.30
11855;DHT22;5987;53.140;8.904;2023-04-03T20:03:56;5.20;91.40
11855;DHT22;5987;53.140;8.904;2023-04-03T20:07:00;5.00;91.70
11855;DHT22;5987;53.140;8.904;2023-04-03T20:10:06;5.00;92.10
11855;DHT22;5987;53.140;8.904;2023-04-03T20:13:10;4.90;92.30
11855;DHT22;5987;53.140;8.904;2023-04-03T20:16:15;4.90;92.70
11855;DHT22;5987;53.140;8.904;2023-04-03T20:19:19;4.70;93.10